Time;durP1;ratioP1;P1;durP2;ratioP2;P2;SDS_P1;SDS_P2;PMS_P1;PMS_P2;Temp;Humidity;BMP_temperature;BMP_pressure;BME280_temperature;BME280_humidity;BME280_pressure;Samples;Min_cycle;Max_cycle;Signal;HPM_P1;HPM_P2
2022/01/24 00:00:46;;;;;;;72.75;12.77;;;5.30;99.90;;;;;;4937302;29;20499;-88
2022/01/24 00:06:28;;;;;;;72.25;13.93;;;5.20;99.90;;;;;;4953456;23;20596;-88
2022/01/24 00:09:26;;;;;;;72.13;12.98;;;5.20;99.90;;;;;;4936084;29;20179;-88
2022/01/24 00:16:02;;;;;;;72.35;13.38;;;5.10;99.90;;;;;;4939558;29;20192;-88
2022/01/24 00:26:41;;;;;;;71.55;11.45;;;5.20;99.90;;;;;;4935723;29;20597;-88
2022/01/24 00:28:32;;;;;;;72.68;12.02;;;5.10;99.90;;;;;;4859967;29;20314;-88
2022/01/24 00:31:12;;;;;;;74.22;14.45;;;5.10;99.90;;;;;;4936710;29;20172;-88
2022/01/24 00:36:28;;;;;;;72.78;13.40;;;5.00;99.90;;;;;;4962254;23;20270;-88
2022/01/24 00:38:54;;;;;;;72.68;11.90;;;5.00;99.90;;;;;;4937165;29;20261;-88
2022/01/24 00:41:22;;;;;;;72.47;12.57;;;5.10;99.90;;;;;;4952378;28;20165;-88
2022/01/24 00:44:13;;;;;;;73.05;13.40;;;5.00;99.90;;;;;;4956379;29;20235;-88
2022/01/24 00:46:46;;;;;;;71.00;11.98;;;5.00;99.90;;;;;;4922305;29;20562;-88
2022/01/24 00:54:53;;;;;;;74.53;11.40;;;4.90;99.90;;;;;;4922578;29;20224;-88
2022/01/24 00:57:23;;;;;;;71.20;10.50;;;4.90;99.90;;;;;;4922200;29;20188;-88
2022/01/24 00:59:49;;;;;;;72.60;11.65;;;4.80;99.90;;;;;;4921196;29;20264;-88
2022/01/24 01:02:16;;;;;;;70.97;10.77;;;4.90;99.90;;;;;;4921594;29;20177;-88
2022/01/24 01:19:30;;;;;;;71.65;11.65;;;4.80;99.90;;;;;;4922851;29;20160;-88
2022/01/24 01:21:56;;;;;;;73.67;12.00;;;4.80;99.90;;;;;;4921160;29;20264;-88
2022/01/24 01:24:39;;;;;;;70.80;11.50;;;4.90;99.90;;;;;;4922560;29;20435;-88
2022/01/24 01:27:22;;;;;;;73.40;13.70;;;4.90;99.90;;;;;;4922363;29;20516;-88
2022/01/24 02:57:31;;;;;;;;;;;;;;;;;;;;;
2022/01/24 03:42:49;;;;;;;82.93;47.60;;;4.50;99.90;;;;;;3806455;27;20307;-87
2022/01/24 03:56:14;;;;;;;79.00;32.67;;;4.60;99.90;;;;;;4830321;29;20203;-87
2022/01/24 04:03:17;;;;;;;;;;;;;;;;;;;;;
2022/01/24 04:09:57;;;;;;;76.30;26.48;;;4.70;99.90;;;;;;4862845;29;20187;-87
2022/01/24 04:30:08;;;;;;;80.15;34.95;;;4.80;99.90;;;;;;4789211;29;20184;-87
2022/01/24 04:37:14;;;;;;;;;;;;;;;;;;;;;
2022/01/24 04:54:27;;;;;;;76.95;24.50;;;4.60;99.90;;;;;;4788650;29;20202;-87
2022/01/24 04:57:37;;;;;;;77.28;22.75;;;4.60;99.90;;;;;;4807696;29;20212;-87
2022/01/24 05:29:36;;;;;;;78.55;28.23;;;4.40;99.90;;;;;;2912266;23;20278;-87
2022/01/24 05:32:50;;;;;;;;;;;;;;;;;;;;;
2022/01/24 05:42:57;;;;;;;73.90;18.38;;;4.40;99.90;;;;;;4920040;29;20177;-88
2022/01/24 05:56:48;;;;;;;75.63;22.42;;;4.30;99.90;;;;;;4941043;29;20257;-87
2022/01/24 06:00:02;;;;;;;78.53;23.27;;;4.20;99.90;;;;;;4940403;29;20259;-87
2022/01/24 06:14:23;;;;;;;;;;;;;;;;;;;;;
2022/01/24 07:04:39;;;;;;;;;;;;;;;;;;;;;
2022/01/24 07:07:28;;;;;;;80.00;33.22;;;3.90;99.90;;;;;;4922686;29;20241;-87
2022/01/24 07:21:59;;;;;;;;;;;;;;;;;;;;;
2022/01/24 07:28:44;;;;;;;;;;;;;;;;;;;;;
2022/01/24 07:42:04;;;;;;;;;;;;;;;;;;;;;
2022/01/24 07:47:23;;;;;;;80.55;34.60;;;3.60;99.90;;;;;;5104346;23;20247;-88
2022/01/24 08:01:06;;;;;;;;;;;;;;;;;;;;;
2022/01/24 08:18:19;;;;;;;;;;;;;;;;;;;;;
2022/01/24 08:33:51;;;;;;;;;;;;;;;;;;;;;
2022/01/24 10:27:17;;;;;;;77.18;23.83;;;5.10;99.90;;;;;;4866359;29;20212;-87
2022/01/24 11:07:55;;;;;;;83.47;33.47;;;5.20;99.90;;;;;;5825667;23;20228;-87
2022/01/24 11:38:40;;;;;;;80.88;39.55;;;5.50;99.90;;;;;;4917577;29;20739;-88
2022/01/24 13:43:07;;;;;;;79.72;20.98;;;5.80;99.90;;;;;;5007020;23;20299;-87
2022/01/24 13:45:39;;;;;;;78.70;28.77;;;5.80;99.90;;;;;;4943711;29;20215;-87
2022/01/24 13:48:18;;;;;;;83.93;39.83;;;5.80;99.90;;;;;;4943720;29;20149;-86
2022/01/24 13:50:57;;;;;;;81.13;36.45;;;5.70;99.90;;;;;;4943241;29;20214;-86
2022/01/24 13:54:05;;;;;;;77.25;24.08;;;5.80;99.90;;;;;;4942934;29;20172;-86
2022/01/24 13:56:43;;;;;;;76.03;19.48;;;5.90;99.90;;;;;;4932833;29;20203;-86
2022/01/24 13:59:50;;;;;;;77.35;21.58;;;5.90;99.90;;;;;;4944812;29;20149;-88
2022/01/24 14:02:32;;;;;;;81.50;23.13;;;5.90;99.90;;;;;;4943486;29;20177;-87
2022/01/24 14:05:03;;;;;;;74.32;18.40;;;5.90;99.90;;;;;;4942249;29;20192;-87
2022/01/24 14:07:49;;;;;;;74.70;17.27;;;6.00;99.90;;;;;;4942604;29;20524;-88
2022/01/24 14:10:25;;;;;;;75.95;17.17;;;6.10;99.90;;;;;;4942850;29;20165;-88
2022/01/24 14:13:20;;;;;;;74.72;16.08;;;6.10;99.90;;;;;;4942134;29;20216;-87
2022/01/24 14:15:54;;;;;;;76.13;17.88;;;6.10;99.90;;;;;;4942486;29;20192;-87
2022/01/24 14:18:28;;;;;;;80.20;23.10;;;6.20;99.90;;;;;;4941581;29;20184;-87
2022/01/24 14:21:13;;;;;;;75.03;18.00;;;6.20;99.90;;;;;;4942194;29;20168;-87
2022/01/24 14:23:43;;;;;;;77.97;22.52;;;6.10;99.90;;;;;;4941454;29;20224;-87
2022/01/24 14:26:22;;;;;;;78.50;27.85;;;6.20;99.90;;;;;;4940631;29;20192;-87
2022/01/24 14:29:11;;;;;;;76.22;17.85;;;6.20;99.90;;;;;;4941622;29;20195;-87
2022/01/24 14:31:52;;;;;;;77.38;17.67;;;6.10;99.90;;;;;;4942254;29;20176;-87
2022/01/24 14:34:24;;;;;;;73.93;16.83;;;6.00;99.90;;;;;;4940802;29;20287;-87
2022/01/24 14:36:58;;;;;;;78.53;20.35;;;6.00;99.90;;;;;;4940358;29;20196;-87
2022/01/24 14:39:27;;;;;;;75.18;19.83;;;6.00;99.90;;;;;;4940648;29;20233;-87
2022/01/24 14:41:53;;;;;;;76.15;20.65;;;5.90;99.90;;;;;;4941109;29;20283;-87
2022/01/24 14:47:16;;;;;;;83.20;33.30;;;5.80;99.90;;;;;;4942034;29;20216;-87
2022/01/24 14:49:57;;;;;;;87.38;23.83;;;5.80;99.90;;;;;;4941683;29;20172;-87
2022/01/24 14:52:41;;;;;;;76.55;20.65;;;5.80;99.90;;;;;;4940356;29;20168;-88
2022/01/24 14:55:11;;;;;;;90.90;39.33;;;5.90;99.90;;;;;;4942179;29;20665;-87
2022/01/24 14:57:45;;;;;;;84.72;46.83;;;5.80;99.90;;;;;;4942810;29;20207;-87
2022/01/24 15:00:22;;;;;;;98.75;75.78;;;5.80;99.90;;;;;;4941239;29;20160;-87
2022/01/24 15:02:52;;;;;;;89.70;54.25;;;5.80;99.90;;;;;;4941095;29;20207;-87
2022/01/24 15:05:18;;;;;;;82.05;36.38;;;5.80;99.90;;;;;;4942453;29;20552;-88
2022/01/24 15:07:44;;;;;;;96.68;67.53;;;5.80;99.90;;;;;;4942231;29;20161;-87
2022/01/24 15:10:19;;;;;;;93.55;66.43;;;5.80;99.90;;;;;;4942712;29;20200;-87
2022/01/24 15:12:51;;;;;;;95.60;68.50;;;5.70;99.90;;;;;;4942282;29;20152;-87
2022/01/24 15:15:22;;;;;;;88.82;54.67;;;5.80;99.90;;;;;;4942415;29;20192;-87
2022/01/24 15:26:05;;;;;;;88.57;56.63;;;5.60;99.90;;;;;;4942552;29;20195;-87
2022/01/24 15:28:41;;;;;;;89.35;57.83;;;5.60;99.90;;;;;;4940966;29;20173;-88
2022/01/24 15:31:10;;;;;;;89.78;59.60;;;5.60;99.90;;;;;;4941665;29;20160;-88
2022/01/24 15:33:41;;;;;;;80.25;35.53;;;5.50;99.90;;;;;;4945560;29;20531;-87
2022/01/24 15:36:16;;;;;;;94.38;53.95;;;5.50;99.90;;;;;;4944233;29;20200;-88
2022/01/24 15:38:42;;;;;;;91.47;52.50;;;5.50;99.90;;;;;;4942671;29;20687;-87
2022/01/24 15:41:10;;;;;;;87.23;38.83;;;5.50;99.90;;;;;;4943577;29;20175;-87
2022/01/24 15:43:58;;;;;;;86.78;48.05;;;5.50;99.90;;;;;;4941610;29;20275;-88
2022/01/24 15:49:01;;;;;;;85.45;45.25;;;5.40;99.90;;;;;;4942660;29;20149;-88
2022/01/24 15:51:29;;;;;;;82.60;38.13;;;5.50;99.90;;;;;;4940402;29;20176;-88
2022/01/24 15:53:56;;;;;;;87.80;49.92;;;5.40;99.90;;;;;;4943445;29;20574;-88
2022/01/24 15:58:50;;;;;;;84.80;31.80;;;5.30;99.90;;;;;;4942911;29;20200;-88
2022/01/24 16:01:16;;;;;;;79.57;32.30;;;5.30;99.90;;;;;;4942761;29;20164;-88
2022/01/24 16:03:41;;;;;;;87.17;55.20;;;5.30;99.90;;;;;;4941379;29;20409;-88
2022/01/24 16:06:08;;;;;;;86.27;44.40;;;5.40;99.90;;;;;;4941483;29;20242;-88
2022/01/24 16:08:34;;;;;;;83.22;41.40;;;5.40;99.90;;;;;;4941585;29;20420;-88
2022/01/24 16:11:05;;;;;;;81.43;37.22;;;5.40;99.90;;;;;;4942799;29;20161;-87
2022/01/24 16:13:32;;;;;;;81.80;38.15;;;5.30;99.90;;;;;;4940625;29;20172;-88
2022/01/24 16:16:00;;;;;;;86.38;49.30;;;5.30;99.90;;;;;;4940006;29;20181;-87
2022/01/24 16:18:27;;;;;;;85.93;51.58;;;5.30;99.90;;;;;;4937592;29;20215;-88
2022/01/24 16:21:14;;;;;;;81.60;39.08;;;5.30;99.90;;;;;;4939090;29;20176;-87
2022/01/24 16:23:47;;;;;;;83.78;38.25;;;5.20;99.90;;;;;;4939706;29;20145;-87
2022/01/24 16:26:13;;;;;;;82.82;40.17;;;5.20;99.90;;;;;;4938483;29;20188;-87
2022/01/24 16:28:42;;;;;;;88.72;57.00;;;5.20;99.90;;;;;;4938705;29;20184;-86
2022/01/24 16:31:10;;;;;;;80.45;34.08;;;5.40;99.90;;;;;;4938753;29;20533;-87
2022/01/24 16:33:39;;;;;;;87.80;52.42;;;5.30;99.90;;;;;;4938335;29;20259;-87
2022/01/24 16:36:09;;;;;;;82.35;33.30;;;5.30;99.90;;;;;;4937248;29;20196;-86
2022/01/24 16:39:05;;;;;;;82.82;36.20;;;5.20;99.90;;;;;;4938380;29;20313;-87
2022/01/24 16:41:56;;;;;;;87.53;48.85;;;5.20;99.90;;;;;;4938147;29;20188;-88
2022/01/24 16:47:10;;;;;;;83.05;39.38;;;5.30;99.90;;;;;;4939766;29;20184;-87
2022/01/24 16:49:41;;;;;;;86.97;48.78;;;5.30;99.90;;;;;;4939147;29;20235;-87
2022/01/24 16:52:10;;;;;;;93.78;46.65;;;5.30;99.90;;;;;;4937874;29;20267;-87
2022/01/24 16:54:36;;;;;;;88.18;55.83;;;5.20;99.90;;;;;;4938748;29;20240;-87
2022/01/24 16:57:03;;;;;;;90.38;56.05;;;5.30;99.90;;;;;;4939127;29;20216;-87
2022/01/24 16:59:31;;;;;;;89.85;56.83;;;5.30;99.90;;;;;;4937743;29;20165;-87
2022/01/24 17:01:57;;;;;;;89.65;52.78;;;5.30;99.90;;;;;;4939544;29;20684;-87
2022/01/24 17:04:25;;;;;;;89.50;53.75;;;5.20;99.90;;;;;;4939444;29;20188;-87
2022/01/24 17:06:52;;;;;;;84.68;39.40;;;5.20;99.90;;;;;;4938527;29;20533;-87
2022/01/24 17:09:18;;;;;;;82.53;34.78;;;5.20;99.90;;;;;;4938385;29;20172;-87
2022/01/24 17:11:46;;;;;;;87.38;39.33;;;5.20;99.90;;;;;;4939598;29;20172;-86
2022/01/24 17:14:16;;;;;;;81.90;36.88;;;5.20;99.90;;;;;;4939153;29;20196;-88
2022/01/24 17:16:48;;;;;;;87.75;36.33;;;5.20;99.90;;;;;;4939817;29;20152;-87
2022/01/24 17:19:18;;;;;;;81.82;31.27;;;5.20;99.90;;;;;;4938988;29;20172;-87
2022/01/24 17:21:45;;;;;;;84.68;35.60;;;5.10;99.90;;;;;;4941004;29;20177;-88
2022/01/24 17:24:11;;;;;;;84.70;39.72;;;5.10;99.90;;;;;;4941103;29;20283;-88
2022/01/24 17:26:40;;;;;;;84.43;30.20;;;5.20;99.90;;;;;;4942349;29;20207;-87
2022/01/24 17:29:10;;;;;;;82.43;36.00;;;5.20;99.90;;;;;;4941533;29;20214;-87
2022/01/24 17:31:38;;;;;;;82.65;32.70;;;5.20;99.90;;;;;;4942729;29;20160;-88
2022/01/24 17:34:04;;;;;;;82.78;33.75;;;5.20;99.90;;;;;;4942281;29;20172;-87
2022/01/24 17:36:30;;;;;;;83.90;34.63;;;5.20;99.90;;;;;;4942979;29;20179;-87
2022/01/24 17:39:04;;;;;;;85.57;44.40;;;5.20;99.90;;;;;;4943481;29;20503;-86
2022/01/24 17:41:40;;;;;;;89.28;48.03;;;5.20;99.90;;;;;;4942774;29;20560;-87
2022/01/24 17:44:06;;;;;;;88.25;43.05;;;5.20;99.90;;;;;;4943874;29;20183;-87
2022/01/24 17:46:32;;;;;;;88.78;42.03;;;5.20;99.90;;;;;;4941855;29;20177;-88
2022/01/24 17:49:00;;;;;;;86.30;35.97;;;5.10;99.90;;;;;;4942850;29;20173;-87
2022/01/24 17:51:29;;;;;;;87.82;42.20;;;5.10;99.90;;;;;;4942197;29;20200;-88
2022/01/24 17:53:58;;;;;;;85.97;46.85;;;5.10;99.90;;;;;;4942069;29;20177;-88
2022/01/24 17:56:24;;;;;;;88.28;41.60;;;5.10;99.90;;;;;;4941961;29;20180;-88
2022/01/24 17:58:52;;;;;;;86.00;36.67;;;5.10;99.90;;;;;;4942425;29;20204;-87
2022/01/24 18:01:18;;;;;;;88.80;45.38;;;5.10;99.90;;;;;;4941071;29;20176;-87
2022/01/24 18:03:44;;;;;;;84.18;38.97;;;5.10;99.90;;;;;;4941712;29;20172;-87
2022/01/24 18:06:12;;;;;;;84.47;33.73;;;5.10;99.90;;;;;;4941973;29;20203;-88
2022/01/24 18:08:39;;;;;;;85.53;39.53;;;5.10;99.90;;;;;;4943096;29;20188;-87
2022/01/24 18:11:10;;;;;;;81.43;30.92;;;5.10;99.90;;;;;;4943172;29;20165;-87
2022/01/24 18:13:37;;;;;;;81.13;30.58;;;5.00;99.90;;;;;;4940848;29;20709;-88
2022/01/24 18:16:06;;;;;;;87.45;31.98;;;5.00;99.90;;;;;;4941467;29;20192;-87
2022/01/24 18:18:33;;;;;;;87.35;34.13;;;5.00;99.90;;;;;;4942671;29;20562;-86
2022/01/24 18:21:00;;;;;;;84.63;31.63;;;5.00;99.90;;;;;;4942774;29;20220;-88
2022/01/24 18:23:31;;;;;;;86.97;33.67;;;5.00;99.90;;;;;;4942738;29;20192;-88
2022/01/24 18:25:58;;;;;;;89.30;32.67;;;5.00;99.90;;;;;;4941407;29;20192;-87
2022/01/24 18:28:24;;;;;;;82.72;33.75;;;5.00;99.90;;;;;;4941329;29;20711;-88
2022/01/24 18:30:50;;;;;;;84.90;33.30;;;5.00;99.90;;;;;;4942954;29;20168;-88
2022/01/24 18:33:16;;;;;;;82.27;33.40;;;5.00;99.90;;;;;;4941612;29;20937;-88
2022/01/24 18:35:42;;;;;;;82.63;29.13;;;5.00;99.90;;;;;;4940435;29;20207;-88
2022/01/24 18:38:08;;;;;;;85.22;32.85;;;5.00;99.90;;;;;;4941933;29;20220;-88
2022/01/24 18:40:39;;;;;;;86.97;29.80;;;4.90;99.90;;;;;;4943018;29;20164;-88
2022/01/24 18:43:05;;;;;;;85.00;28.33;;;5.00;99.90;;;;;;4941593;29;20219;-88
2022/01/24 18:45:34;;;;;;;88.15;42.35;;;4.90;99.90;;;;;;4942173;29;20275;-87
2022/01/24 18:47:59;;;;;;;87.13;42.72;;;4.90;99.90;;;;;;4943046;29;20180;-88
2022/01/24 18:50:45;;;;;;;86.17;38.60;;;4.90;99.90;;;;;;4942307;29;20548;-86
2022/01/24 18:53:15;;;;;;;88.13;38.65;;;4.90;99.90;;;;;;4928122;29;20435;-88
2022/01/24 18:55:41;;;;;;;84.93;33.28;;;5.00;99.90;;;;;;4942702;29;20199;-88
2022/01/24 18:58:17;;;;;;;89.77;38.13;;;5.00;99.90;;;;;;4943191;29;20196;-87
2022/01/24 19:00:46;;;;;;;89.90;47.47;;;4.90;99.90;;;;;;4941379;29;20165;-88
2022/01/24 19:03:13;;;;;;;85.57;34.70;;;4.90;99.90;;;;;;4940845;29;20168;-87
2022/01/24 19:05:42;;;;;;;83.97;32.30;;;4.90;99.90;;;;;;4941712;29;20549;-87
2022/01/24 19:08:13;;;;;;;84.35;35.45;;;4.90;99.90;;;;;;4941501;29;20173;-87
2022/01/24 19:10:44;;;;;;;87.85;31.48;;;4.90;99.90;;;;;;4940435;29;20184;-88
2022/01/24 19:13:19;;;;;;;85.03;33.17;;;4.90;99.90;;;;;;4941845;29;20161;-88
2022/01/24 19:15:49;;;;;;;83.82;29.92;;;4.90;99.90;;;;;;4941161;29;20192;-88
2022/01/24 19:23:37;;;;;;;84.97;32.85;;;4.90;99.90;;;;;;4941687;29;20164;-88
2022/01/24 19:26:14;;;;;;;83.60;31.35;;;4.90;99.90;;;;;;4941365;29;20176;-88
2022/01/24 19:28:43;;;;;;;88.43;32.70;;;4.90;99.90;;;;;;4939715;29;20169;-87
2022/01/24 19:31:10;;;;;;;89.20;36.50;;;4.90;99.90;;;;;;4939848;29;20172;-88
2022/01/24 19:33:37;;;;;;;91.60;44.38;;;4.90;99.90;;;;;;4940352;29;20208;-86
2022/01/24 19:36:05;;;;;;;93.43;46.97;;;4.90;99.90;;;;;;4937008;29;20212;-85
2022/01/24 19:38:33;;;;;;;85.07;36.03;;;4.90;99.90;;;;;;4936994;29;20243;-86
2022/01/24 19:41:00;;;;;;;88.15;38.03;;;4.90;99.90;;;;;;4938970;29;20179;-85
2022/01/24 20:07:32;;;;;;;;;;;;;;;;;;;;;
2022/01/24 20:10:29;;;;;;;;;;;;;;;;;;;;;
2022/01/24 20:23:50;;;;;;;86.10;29.83;;;5.00;99.90;;;;;;4842899;29;20168;-88
2022/01/24 20:29:52;;;;;;;83.13;29.40;;;5.00;99.90;;;;;;4880015;29;20177;-88
2022/01/24 20:36:25;;;;;;;86.15;31.58;;;4.90;99.90;;;;;;4860014;29;20198;-88
2022/01/24 20:40:01;;;;;;;;;;;;;;;;;;;;;
2022/01/24 20:43:30;;;;;;;91.85;31.85;;;5.10;99.90;;;;;;4864295;29;20182;-88
2022/01/24 20:46:34;;;;;;;89.35;32.35;;;4.90;99.90;;;;;;4840932;29;20228;-87
2022/01/24 20:50:04;;;;;;;;;;;;;;;;;;;;;
2022/01/24 20:55:36;;;;;;;89.95;36.13;;;4.90;99.90;;;;;;4879388;29;20616;-88
2022/01/24 20:58:45;;;;;;;85.25;33.20;;;4.80;99.90;;;;;;4861198;29;20239;-88
2022/01/24 21:05:15;;;;;;;88.80;31.85;;;4.90;99.90;;;;;;4863900;29;20214;-88
2022/01/24 21:11:25;;;;;;;83.25;26.73;;;4.90;99.90;;;;;;4900825;29;20185;-88
2022/01/24 21:17:16;;;;;;;86.05;32.28;;;4.90;99.90;;;;;;4897349;29;20246;-88
2022/01/24 21:24:25;;;;;;;87.70;31.83;;;4.90;99.90;;;;;;4939027;29;20173;-88
2022/01/24 21:27:38;;;;;;;85.70;27.60;;;4.90;99.90;;;;;;4939826;29;20172;-88
2022/01/24 21:37:31;;;;;;;;;;;;;;;;;;;;;
2022/01/24 21:51:57;;;;;;;86.78;35.25;;;4.80;99.90;;;;;;5395186;23;20293;-86
2022/01/24 21:55:08;;;;;;;91.63;35.65;;;4.80;99.90;;;;;;4936525;29;20649;-87
2022/01/24 22:18:26;;;;;;;90.95;39.60;;;4.70;99.90;;;;;;4944630;23;20232;-87
2022/01/24 22:20:48;;;;;;;84.53;30.25;;;4.80;99.90;;;;;;4910784;29;20213;-87
2022/01/24 22:23:51;;;;;;;85.55;29.85;;;4.80;99.90;;;;;;4918575;29;20185;-86
2022/01/24 22:26:42;;;;;;;84.88;26.52;;;4.80;99.90;;;;;;4884752;29;20173;-87
2022/01/24 22:35:26;;;;;;;85.60;28.25;;;4.70;99.90;;;;;;4855545;29;20225;-87
2022/01/24 22:38:08;;;;;;;84.25;28.08;;;4.70;99.90;;;;;;4862671;29;20214;-87
2022/01/24 22:41:27;;;;;;;83.72;26.27;;;4.70;99.90;;;;;;4837218;29;20714;-87
2022/01/24 22:44:27;;;;;;;;;;;;;;;;;;;;;
2022/01/24 22:47:29;;;;;;;87.25;30.48;;;4.60;99.90;;;;;;4862754;29;20171;-87
2022/01/24 22:50:40;;;;;;;;;;;;;;;;;;;;;
2022/01/24 22:53:22;;;;;;;83.35;27.38;;;4.60;99.90;;;;;;4920692;29;20580;-86
2022/01/24 22:56:26;;;;;;;85.45;30.50;;;4.60;99.90;;;;;;4937247;29;20216;-87
2022/01/24 22:59:09;;;;;;;93.13;31.52;;;4.50;99.90;;;;;;4920551;29;20188;-87
2022/01/24 23:01:52;;;;;;;90.78;38.25;;;4.50;99.90;;;;;;4934851;29;20180;-87
2022/01/24 23:09:49;;;;;;;84.72;28.63;;;4.60;99.90;;;;;;4943724;23;20240;-87
2022/01/24 23:18:20;;;;;;;88.82;38.72;;;4.50;99.90;;;;;;4939000;29;20231;-87
2022/01/24 23:21:17;;;;;;;89.28;37.50;;;4.50;99.90;;;;;;4937852;29;20172;-87
2022/01/24 23:24:55;;;;;;;;;;;;;;;;;;;;;
2022/01/24 23:28:03;;;;;;;82.30;28.92;;;4.60;99.90;;;;;;4939153;29;20596;-87
2022/01/24 23:40:08;;;;;;;85.68;31.98;;;4.60;99.90;;;;;;4939115;29;20172;-87
2022/01/24 23:43:47;;;;;;;;;;;;;;;;;;;;;
2022/01/24 23:45:42;;;;;;;85.18;27.58;;;4.50;99.90;;;;;;4941100;29;20200;-87
2022/01/24 23:48:30;;;;;;;85.63;29.75;;;4.50;99.90;;;;;;4938451;29;20176;-87
2022/01/24 23:51:35;;;;;;;;;;;;;;;;;;;;;
2022/01/24 23:54:07;;;;;;;86.72;27.02;;;4.40;99.90;;;;;;4933381;29;20192;-87
2022/01/24 23:57:05;;;;;;;86.75;32.67;;;4.60;99.90;;;;;;4937527;29;20565;-87
